sensor_id;sensor_type;location;lat;lon;timestamp;P1;durP1;ratioP1;P2;durP2;ratioP2
76626;SDS011;65519;53.230;10.390;2023-10-19T00:00:41;12.65;;;7.15;;
76626;SDS011;65519;53.230;10.390;2023-10-19T00:03:11;13.40;;;7.18;;
76626;SDS011;65519;53.230;10.390;2023-10-19T00:05:37;12.52;;;7.45;;
76626;SDS011;65519;53.230;10.390;2023-10-19T00:08:04;15.73;;;8.13;;
76626;SDS011;65519;53.230;10.390;2023-10-19T00:10:44;12.20;;;7.22;;
76626;SDS011;65519;53.230;10.390;2023-10-19T00:13:14;13.50;;;6.95;;
76626;SDS011;65519;53.230;10.390;2023-10-19T00:15:41;15.10;;;7.38;;
76626;SDS011;65519;53.230;10.390;2023-10-19T00:18:16;11.98;;;7.22;;
76626;SDS011;65519;53.230;10.390;2023-10-19T00:20:43;12.95;;;6.72;;
76626;SDS011;65519;53.230;10.390;2023-10-19T00:23:12;13.98;;;7.07;;
76626;SDS011;65519;53.230;10.390;2023-10-19T00:25:41;12.70;;;6.57;;
76626;SDS011;65519;53.230;10.390;2023-10-19T00:28:07;11.70;;;7.22;;
76626;SDS011;65519;53.230;10.390;2023-10-19T00:30:33;13.20;;;7.00;;
76626;SDS011;65519;53.230;10.390;2023-10-19T00:33:02;13.50;;;7.47;;
76626;SDS011;65519;53.230;10.390;2023-10-19T00:35:40;12.00;;;7.22;;
76626;SDS011;65519;53.230;10.390;2023-10-19T00:38:24;14.38;;;7.72;;
76626;SDS011;65519;53.230;10.390;2023-10-19T00:41:04;13.60;;;7.78;;
76626;SDS011;65519;53.230;10.390;2023-10-19T00:43:39;12.80;;;7.40;;
76626;SDS011;65519;53.230;10.390;2023-10-19T00:46:10;15.07;;;7.50;;
76626;SDS011;65519;53.230;10.390;2023-10-19T00:48:54;16.30;;;8.38;;
76626;SDS011;65519;53.230;10.390;2023-10-19T00:51:25;14.73;;;7.20;;
76626;SDS011;65519;53.230;10.390;2023-10-19T00:53:56;13.30;;;6.88;;
76626;SDS011;65519;53.230;10.390;2023-10-19T00:56:24;13.27;;;7.47;;
76626;SDS011;65519;53.230;10.390;2023-10-19T00:58:56;14.30;;;6.95;;
76626;SDS011;65519;53.230;10.390;2023-10-19T01:01:32;13.55;;;6.63;;
76626;SDS011;65519;53.230;10.390;2023-10-19T01:04:02;13.27;;;6.90;;
76626;SDS011;65519;53.230;10.390;2023-10-19T01:06:29;12.98;;;7.15;;
76626;SDS011;65519;53.230;10.390;2023-10-19T01:08:57;14.77;;;7.63;;
76626;SDS011;65519;53.230;10.390;2023-10-19T01:11:22;13.30;;;7.07;;
76626;SDS011;65519;53.230;10.390;2023-10-19T01:13:53;15.93;;;7.65;;
76626;SDS011;65519;53.230;10.390;2023-10-19T01:16:19;16.17;;;7.72;;
76626;SDS011;65519;53.230;10.390;2023-10-19T01:18:50;15.10;;;7.32;;
76626;SDS011;65519;53.230;10.390;2023-10-19T01:21:22;16.00;;;7.95;;
76626;SDS011;65519;53.230;10.390;2023-10-19T01:23:53;15.95;;;7.93;;
76626;SDS011;65519;53.230;10.390;2023-10-19T01:26:18;12.50;;;7.13;;
76626;SDS011;65519;53.230;10.390;2023-10-19T01:28:51;12.95;;;6.93;;
76626;SDS011;65519;53.230;10.390;2023-10-19T01:31:21;12.30;;;7.22;;
76626;SDS011;65519;53.230;10.390;2023-10-19T01:33:53;13.70;;;7.00;;
76626;SDS011;65519;53.230;10.390;2023-10-19T01:36:24;13.52;;;7.00;;
76626;SDS011;65519;53.230;10.390;2023-10-19T01:38:51;16.50;;;7.95;;
76626;SDS011;65519;53.230;10.390;2023-10-19T01:41:19;14.05;;;7.13;;
76626;SDS011;65519;53.230;10.390;2023-10-19T01:43:46;14.38;;;7.28;;
76626;SDS011;65519;53.230;10.390;2023-10-19T01:46:14;18.25;;;7.45;;
76626;SDS011;65519;53.230;10.390;2023-10-19T01:48:59;14.52;;;7.65;;
76626;SDS011;65519;53.230;10.390;2023-10-19T01:51:27;16.70;;;7.50;;
76626;SDS011;65519;53.230;10.390;2023-10-19T01:53:55;13.45;;;6.65;;
76626;SDS011;65519;53.230;10.390;2023-10-19T01:56:22;13.88;;;6.97;;
76626;SDS011;65519;53.230;10.390;2023-10-19T01:58:48;17.10;;;8.05;;
76626;SDS011;65519;53.230;10.390;2023-10-19T02:01:17;16.13;;;7.82;;
76626;SDS011;65519;53.230;10.390;2023-10-19T02:03:54;14.10;;;7.68;;
76626;SDS011;65519;53.230;10.390;2023-10-19T02:06:25;15.23;;;7.28;;
76626;SDS011;65519;53.230;10.390;2023-10-19T02:08:58;17.10;;;7.53;;
76626;SDS011;65519;53.230;10.390;2023-10-19T02:11:44;14.75;;;7.32;;
76626;SDS011;65519;53.230;10.390;2023-10-19T02:14:13;14.25;;;7.38;;
76626;SDS011;65519;53.230;10.390;2023-10-19T02:16:41;13.75;;;7.63;;
76626;SDS011;65519;53.230;10.390;2023-10-19T02:19:12;13.75;;;7.95;;
76626;SDS011;65519;53.230;10.390;2023-10-19T02:21:39;14.52;;;8.00;;
76626;SDS011;65519;53.230;10.390;2023-10-19T02:24:09;13.52;;;7.30;;
76626;SDS011;65519;53.230;10.390;2023-10-19T02:26:45;14.05;;;8.23;;
76626;SDS011;65519;53.230;10.390;2023-10-19T02:29:12;13.35;;;7.35;;
76626;SDS011;65519;53.230;10.390;2023-10-19T02:31:41;18.73;;;8.30;;
76626;SDS011;65519;53.230;10.390;2023-10-19T02:34:08;22.02;;;8.95;;
76626;SDS011;65519;53.230;10.390;2023-10-19T02:36:36;16.08;;;8.10;;
76626;SDS011;65519;53.230;10.390;2023-10-19T02:39:04;15.38;;;9.07;;
76626;SDS011;65519;53.230;10.390;2023-10-19T02:41:33;16.45;;;9.00;;
76626;SDS011;65519;53.230;10.390;2023-10-19T02:44:01;17.27;;;8.82;;
76626;SDS011;65519;53.230;10.390;2023-10-19T02:46:48;16.15;;;8.48;;
76626;SDS011;65519;53.230;10.390;2023-10-19T02:49:24;16.98;;;8.38;;
76626;SDS011;65519;53.230;10.390;2023-10-19T02:54:21;13.98;;;7.65;;
76626;SDS011;65519;53.230;10.390;2023-10-19T02:56:53;13.77;;;8.00;;
76626;SDS011;65519;53.230;10.390;2023-10-19T02:59:22;16.55;;;8.50;;
76626;SDS011;65519;53.230;10.390;2023-10-19T03:01:53;19.45;;;8.75;;
76626;SDS011;65519;53.230;10.390;2023-10-19T03:04:27;18.45;;;9.52;;
76626;SDS011;65519;53.230;10.390;2023-10-19T03:06:55;18.27;;;9.23;;
76626;SDS011;65519;53.230;10.390;2023-10-19T03:09:21;15.10;;;8.48;;
76626;SDS011;65519;53.230;10.390;2023-10-19T03:11:53;14.10;;;8.60;;
76626;SDS011;65519;53.230;10.390;2023-10-19T03:14:20;15.48;;;8.48;;
76626;SDS011;65519;53.230;10.390;2023-10-19T03:16:50;18.13;;;8.65;;
76626;SDS011;65519;53.230;10.390;2023-10-19T03:19:15;14.80;;;8.10;;
76626;SDS011;65519;53.230;10.390;2023-10-19T03:21:41;20.35;;;9.27;;
76626;SDS011;65519;53.230;10.390;2023-10-19T03:24:08;17.50;;;9.38;;
76626;SDS011;65519;53.230;10.390;2023-10-19T03:26:52;16.15;;;9.27;;
76626;SDS011;65519;53.230;10.390;2023-10-19T03:29:19;20.23;;;9.38;;
76626;SDS011;65519;53.230;10.390;2023-10-19T03:31:53;17.85;;;9.82;;
76626;SDS011;65519;53.230;10.390;2023-10-19T03:34:18;14.18;;;8.48;;
76626;SDS011;65519;53.230;10.390;2023-10-19T03:36:44;20.27;;;9.73;;
76626;SDS011;65519;53.230;10.390;2023-10-19T03:39:10;16.38;;;9.63;;
76626;SDS011;65519;53.230;10.390;2023-10-19T03:41:45;15.80;;;8.88;;
76626;SDS011;65519;53.230;10.390;2023-10-19T03:44:11;16.42;;;9.02;;
76626;SDS011;65519;53.230;10.390;2023-10-19T03:46:49;15.02;;;8.70;;
76626;SDS011;65519;53.230;10.390;2023-10-19T03:49:21;17.25;;;8.77;;
76626;SDS011;65519;53.230;10.390;2023-10-19T03:51:47;17.92;;;9.82;;
76626;SDS011;65519;53.230;10.390;2023-10-19T03:54:45;18.48;;;9.98;;
76626;SDS011;65519;53.230;10.390;2023-10-19T03:57:13;17.85;;;10.00;;
76626;SDS011;65519;53.230;10.390;2023-10-19T03:59:49;21.08;;;10.30;;
76626;SDS011;65519;53.230;10.390;2023-10-19T04:02:21;17.95;;;9.65;;
76626;SDS011;65519;53.230;10.390;2023-10-19T04:04:47;18.48;;;9.43;;
76626;SDS011;65519;53.230;10.390;2023-10-19T04:07:13;18.30;;;9.50;;
76626;SDS011;65519;53.230;10.390;2023-10-19T04:09:51;23.85;;;12.60;;
76626;SDS011;65519;53.230;10.390;2023-10-19T04:12:32;23.08;;;11.75;;
76626;SDS011;65519;53.230;10.390;2023-10-19T04:15:01;21.83;;;11.68;;
76626;SDS011;65519;53.230;10.390;2023-10-19T04:17:47;22.38;;;12.02;;
76626;SDS011;65519;53.230;10.390;2023-10-19T04:20:14;17.20;;;10.40;;
76626;SDS011;65519;53.230;10.390;2023-10-19T04:22:47;20.40;;;10.32;;
76626;SDS011;65519;53.230;10.390;2023-10-19T04:25:16;21.48;;;10.52;;
76626;SDS011;65519;53.230;10.390;2023-10-19T04:27:44;22.38;;;10.88;;
76626;SDS011;65519;53.230;10.390;2023-10-19T04:30:14;22.42;;;10.50;;
76626;SDS011;65519;53.230;10.390;2023-10-19T04:32:47;28.10;;;12.13;;
76626;SDS011;65519;53.230;10.390;2023-10-19T04:35:14;19.95;;;10.00;;
76626;SDS011;65519;53.230;10.390;2023-10-19T04:37:46;18.25;;;10.73;;
76626;SDS011;65519;53.230;10.390;2023-10-19T04:40:13;19.55;;;9.75;;
76626;SDS011;65519;53.230;10.390;2023-10-19T04:42:38;17.98;;;9.70;;
76626;SDS011;65519;53.230;10.390;2023-10-19T04:45:04;16.95;;;9.88;;
76626;SDS011;65519;53.230;10.390;2023-10-19T04:47:31;20.08;;;10.50;;
76626;SDS011;65519;53.230;10.390;2023-10-19T04:50:00;19.20;;;9.98;;
76626;SDS011;65519;53.230;10.390;2023-10-19T04:52:25;24.70;;;11.82;;
76626;SDS011;65519;53.230;10.390;2023-10-19T04:54:51;20.73;;;10.50;;
76626;SDS011;65519;53.230;10.390;2023-10-19T04:57:16;19.63;;;9.80;;
76626;SDS011;65519;53.230;10.390;2023-10-19T04:59:42;21.85;;;11.48;;
76626;SDS011;65519;53.230;10.390;2023-10-19T05:02:10;20.60;;;10.40;;
76626;SDS011;65519;53.230;10.390;2023-10-19T05:04:36;19.05;;;9.88;;
76626;SDS011;65519;53.230;10.390;2023-10-19T05:07:01;23.05;;;10.23;;
76626;SDS011;65519;53.230;10.390;2023-10-19T05:09:28;18.83;;;10.00;;
76626;SDS011;65519;53.230;10.390;2023-10-19T05:11:54;19.75;;;10.23;;
76626;SDS011;65519;53.230;10.390;2023-10-19T05:14:20;20.30;;;10.05;;
76626;SDS011;65519;53.230;10.390;2023-10-19T05:16:46;20.00;;;9.80;;
76626;SDS011;65519;53.230;10.390;2023-10-19T05:19:11;22.20;;;9.65;;
76626;SDS011;65519;53.230;10.390;2023-10-19T05:21:36;16.73;;;9.50;;
76626;SDS011;65519;53.230;10.390;2023-10-19T05:24:02;21.48;;;10.32;;
76626;SDS011;65519;53.230;10.390;2023-10-19T05:26:28;19.85;;;10.38;;
76626;SDS011;65519;53.230;10.390;2023-10-19T05:28:53;19.58;;;10.45;;
76626;SDS011;65519;53.230;10.390;2023-10-19T05:31:19;24.15;;;11.15;;
76626;SDS011;65519;53.230;10.390;2023-10-19T05:33:45;20.77;;;10.35;;
76626;SDS011;65519;53.230;10.390;2023-10-19T05:38:39;20.63;;;9.70;;
76626;SDS011;65519;53.230;10.390;2023-10-19T05:41:05;24.67;;;10.05;;
76626;SDS011;65519;53.230;10.390;2023-10-19T05:43:30;19.45;;;9.50;;
76626;SDS011;65519;53.230;10.390;2023-10-19T05:45:56;18.48;;;9.77;;
76626;SDS011;65519;53.230;10.390;2023-10-19T05:48:22;22.85;;;11.30;;
76626;SDS011;65519;53.230;10.390;2023-10-19T05:50:49;19.55;;;10.75;;
76626;SDS011;65519;53.230;10.390;2023-10-19T05:53:14;20.23;;;9.93;;
76626;SDS011;65519;53.230;10.390;2023-10-19T05:55:46;23.90;;;10.30;;
76626;SDS011;65519;53.230;10.390;2023-10-19T05:58:11;19.75;;;10.65;;
76626;SDS011;65519;53.230;10.390;2023-10-19T06:00:37;19.92;;;9.68;;
76626;SDS011;65519;53.230;10.390;2023-10-19T06:03:02;22.13;;;10.50;;
76626;SDS011;65519;53.230;10.390;2023-10-19T06:05:29;19.38;;;9.48;;
76626;SDS011;65519;53.230;10.390;2023-10-19T06:07:56;24.27;;;11.85;;
76626;SDS011;65519;53.230;10.390;2023-10-19T06:10:21;23.25;;;11.07;;
76626;SDS011;65519;53.230;10.390;2023-10-19T06:12:50;21.42;;;11.07;;
76626;SDS011;65519;53.230;10.390;2023-10-19T06:15:17;19.05;;;10.10;;
76626;SDS011;65519;53.230;10.390;2023-10-19T06:17:45;22.08;;;10.90;;
76626;SDS011;65519;53.230;10.390;2023-10-19T06:20:13;19.67;;;9.90;;
76626;SDS011;65519;53.230;10.390;2023-10-19T06:22:47;21.63;;;10.35;;
76626;SDS011;65519;53.230;10.390;2023-10-19T06:25:21;21.25;;;10.70;;
76626;SDS011;65519;53.230;10.390;2023-10-19T06:27:49;21.33;;;10.40;;
76626;SDS011;65519;53.230;10.390;2023-10-19T06:30:16;22.98;;;11.32;;
76626;SDS011;65519;53.230;10.390;2023-10-19T06:32:45;23.50;;;10.57;;
76626;SDS011;65519;53.230;10.390;2023-10-19T06:35:12;20.20;;;10.52;;
76626;SDS011;65519;53.230;10.390;2023-10-19T06:37:38;21.27;;;11.07;;
76626;SDS011;65519;53.230;10.390;2023-10-19T06:40:04;22.40;;;11.13;;
76626;SDS011;65519;53.230;10.390;2023-10-19T06:42:31;19.10;;;10.18;;
76626;SDS011;65519;53.230;10.390;2023-10-19T06:44:57;19.27;;;11.25;;
76626;SDS011;65519;53.230;10.390;2023-10-19T06:47:22;22.08;;;11.00;;
76626;SDS011;65519;53.230;10.390;2023-10-19T06:49:48;18.00;;;9.18;;
76626;SDS011;65519;53.230;10.390;2023-10-19T06:52:14;19.45;;;10.38;;
76626;SDS011;65519;53.230;10.390;2023-10-19T06:54:41;25.50;;;10.95;;
76626;SDS011;65519;53.230;10.390;2023-10-19T06:57:07;21.02;;;10.82;;
76626;SDS011;65519;53.230;10.390;2023-10-19T06:59:33;21.92;;;10.13;;
76626;SDS011;65519;53.230;10.390;2023-10-19T07:02:00;25.95;;;11.98;;
76626;SDS011;65519;53.230;10.390;2023-10-19T07:04:26;27.17;;;13.02;;
76626;SDS011;65519;53.230;10.390;2023-10-19T07:06:53;29.33;;;13.80;;
76626;SDS011;65519;53.230;10.390;2023-10-19T07:09:18;20.33;;;11.10;;
76626;SDS011;65519;53.230;10.390;2023-10-19T07:11:44;21.50;;;10.57;;
76626;SDS011;65519;53.230;10.390;2023-10-19T07:14:10;24.02;;;11.45;;
76626;SDS011;65519;53.230;10.390;2023-10-19T07:16:38;20.15;;;10.00;;
76626;SDS011;65519;53.230;10.390;2023-10-19T07:19:07;21.25;;;10.57;;
76626;SDS011;65519;53.230;10.390;2023-10-19T07:21:34;21.42;;;10.70;;
76626;SDS011;65519;53.230;10.390;2023-10-19T07:24:02;22.98;;;11.10;;
76626;SDS011;65519;53.230;10.390;2023-10-19T07:26:31;21.05;;;10.90;;
76626;SDS011;65519;53.230;10.390;2023-10-19T07:28:59;21.42;;;10.60;;
76626;SDS011;65519;53.230;10.390;2023-10-19T07:31:25;23.88;;;11.20;;
76626;SDS011;65519;53.230;10.390;2023-10-19T07:33:53;25.17;;;12.02;;
76626;SDS011;65519;53.230;10.390;2023-10-19T07:36:20;25.48;;;12.13;;
76626;SDS011;65519;53.230;10.390;2023-10-19T07:38:46;22.52;;;12.18;;
76626;SDS011;65519;53.230;10.390;2023-10-19T07:41:12;23.40;;;11.63;;
76626;SDS011;65519;53.230;10.390;2023-10-19T07:43:38;23.85;;;11.63;;
76626;SDS011;65519;53.230;10.390;2023-10-19T07:46:04;29.98;;;11.45;;
76626;SDS011;65519;53.230;10.390;2023-10-19T07:48:30;22.35;;;11.38;;
76626;SDS011;65519;53.230;10.390;2023-10-19T07:50:55;22.13;;;11.55;;
76626;SDS011;65519;53.230;10.390;2023-10-19T07:53:21;24.70;;;12.07;;
76626;SDS011;65519;53.230;10.390;2023-10-19T07:55:47;21.95;;;12.48;;
76626;SDS011;65519;53.230;10.390;2023-10-19T07:58:12;23.98;;;12.18;;
76626;SDS011;65519;53.230;10.390;2023-10-19T08:00:38;22.35;;;12.48;;
76626;SDS011;65519;53.230;10.390;2023-10-19T08:03:04;23.65;;;11.98;;
76626;SDS011;65519;53.230;10.390;2023-10-19T08:05:31;40.08;;;19.42;;
76626;SDS011;65519;53.230;10.390;2023-10-19T08:07:58;31.45;;;14.70;;
76626;SDS011;65519;53.230;10.390;2023-10-19T08:10:25;20.77;;;11.20;;
76626;SDS011;65519;53.230;10.390;2023-10-19T08:12:52;23.98;;;12.23;;
76626;SDS011;65519;53.230;10.390;2023-10-19T08:15:18;23.17;;;12.30;;
76626;SDS011;65519;53.230;10.390;2023-10-19T08:17:46;23.73;;;12.05;;
76626;SDS011;65519;53.230;10.390;2023-10-19T08:20:13;23.55;;;11.55;;
76626;SDS011;65519;53.230;10.390;2023-10-19T08:22:48;21.50;;;11.43;;
76626;SDS011;65519;53.230;10.390;2023-10-19T08:25:15;27.27;;;13.85;;
76626;SDS011;65519;53.230;10.390;2023-10-19T08:27:41;29.17;;;13.73;;
76626;SDS011;65519;53.230;10.390;2023-10-19T08:30:09;24.02;;;12.77;;
76626;SDS011;65519;53.230;10.390;2023-10-19T08:32:36;22.60;;;11.63;;
76626;SDS011;65519;53.230;10.390;2023-10-19T08:35:02;23.95;;;11.80;;
76626;SDS011;65519;53.230;10.390;2023-10-19T08:37:28;23.90;;;12.23;;
76626;SDS011;65519;53.230;10.390;2023-10-19T08:39:53;24.95;;;11.75;;
76626;SDS011;65519;53.230;10.390;2023-10-19T08:42:19;51.08;;;21.75;;
76626;SDS011;65519;53.230;10.390;2023-10-19T08:44:45;25.13;;;13.93;;
76626;SDS011;65519;53.230;10.390;2023-10-19T08:47:11;25.35;;;12.57;;
76626;SDS011;65519;53.230;10.390;2023-10-19T08:49:37;27.10;;;13.32;;
76626;SDS011;65519;53.230;10.390;2023-10-19T08:52:03;74.70;;;34.15;;
76626;SDS011;65519;53.230;10.390;2023-10-19T08:54:31;28.05;;;14.00;;
76626;SDS011;65519;53.230;10.390;2023-10-19T08:56:58;25.75;;;13.77;;
76626;SDS011;65519;53.230;10.390;2023-10-19T08:59:24;30.05;;;15.15;;
76626;SDS011;65519;53.230;10.390;2023-10-19T09:01:50;28.55;;;13.98;;
76626;SDS011;65519;53.230;10.390;2023-10-19T09:04:15;28.85;;;13.55;;
76626;SDS011;65519;53.230;10.390;2023-10-19T09:06:44;29.83;;;14.43;;
76626;SDS011;65519;53.230;10.390;2023-10-19T09:09:13;25.73;;;12.48;;
76626;SDS011;65519;53.230;10.390;2023-10-19T09:11:42;33.13;;;14.38;;
76626;SDS011;65519;53.230;10.390;2023-10-19T09:14:08;27.05;;;14.13;;
76626;SDS011;65519;53.230;10.390;2023-10-19T09:19:02;25.50;;;12.53;;
76626;SDS011;65519;53.230;10.390;2023-10-19T09:21:27;30.30;;;13.73;;
76626;SDS011;65519;53.230;10.390;2023-10-19T09:23:56;26.55;;;13.10;;
76626;SDS011;65519;53.230;10.390;2023-10-19T09:26:23;27.33;;;15.18;;
76626;SDS011;65519;53.230;10.390;2023-10-19T09:28:50;26.00;;;13.40;;
76626;SDS011;65519;53.230;10.390;2023-10-19T09:31:19;28.70;;;14.00;;
76626;SDS011;65519;53.230;10.390;2023-10-19T09:33:47;26.80;;;13.80;;
76626;SDS011;65519;53.230;10.390;2023-10-19T09:36:14;27.27;;;13.75;;
76626;SDS011;65519;53.230;10.390;2023-10-19T09:38:46;26.02;;;13.52;;
76626;SDS011;65519;53.230;10.390;2023-10-19T09:41:14;28.20;;;13.52;;
76626;SDS011;65519;53.230;10.390;2023-10-19T09:43:46;24.33;;;13.18;;
76626;SDS011;65519;53.230;10.390;2023-10-19T09:46:34;30.23;;;13.65;;
76626;SDS011;65519;53.230;10.390;2023-10-19T09:49:04;25.50;;;12.68;;
76626;SDS011;65519;53.230;10.390;2023-10-19T09:51:31;26.08;;;13.88;;
76626;SDS011;65519;53.230;10.390;2023-10-19T09:54:02;30.90;;;15.70;;
76626;SDS011;65519;53.230;10.390;2023-10-19T09:56:36;32.78;;;16.65;;
76626;SDS011;65519;53.230;10.390;2023-10-19T09:59:06;26.38;;;14.15;;
76626;SDS011;65519;53.230;10.390;2023-10-19T10:02:04;27.38;;;13.90;;
76626;SDS011;65519;53.230;10.390;2023-10-19T10:04:37;27.17;;;14.93;;
76626;SDS011;65519;53.230;10.390;2023-10-19T10:07:03;37.63;;;16.83;;
76626;SDS011;65519;53.230;10.390;2023-10-19T10:09:31;30.52;;;15.52;;
76626;SDS011;65519;53.230;10.390;2023-10-19T10:12:25;69.43;;;34.88;;
76626;SDS011;65519;53.230;10.390;2023-10-19T10:15:05;29.80;;;16.65;;
76626;SDS011;65519;53.230;10.390;2023-10-19T10:17:34;28.08;;;14.27;;
76626;SDS011;65519;53.230;10.390;2023-10-19T10:22:44;26.33;;;14.30;;
76626;SDS011;65519;53.230;10.390;2023-10-19T10:25:24;32.20;;;14.40;;
76626;SDS011;65519;53.230;10.390;2023-10-19T10:27:52;27.90;;;15.25;;
76626;SDS011;65519;53.230;10.390;2023-10-19T10:30:19;33.22;;;15.07;;
76626;SDS011;65519;53.230;10.390;2023-10-19T10:32:51;33.67;;;16.23;;
76626;SDS011;65519;53.230;10.390;2023-10-19T10:36:22;31.20;;;16.05;;
76626;SDS011;65519;53.230;10.390;2023-10-19T10:38:19;29.65;;;15.88;;
76626;SDS011;65519;53.230;10.390;2023-10-19T10:40:45;34.13;;;16.83;;
76626;SDS011;65519;53.230;10.390;2023-10-19T10:43:12;28.80;;;15.43;;
76626;SDS011;65519;53.230;10.390;2023-10-19T10:45:38;26.70;;;15.10;;
76626;SDS011;65519;53.230;10.390;2023-10-19T10:48:04;30.67;;;16.45;;
76626;SDS011;65519;53.230;10.390;2023-10-19T10:50:35;33.22;;;15.68;;
76626;SDS011;65519;53.230;10.390;2023-10-19T10:53:04;35.13;;;17.27;;
76626;SDS011;65519;53.230;10.390;2023-10-19T10:55:30;35.58;;;15.50;;
76626;SDS011;65519;53.230;10.390;2023-10-19T10:57:56;26.13;;;15.38;;
76626;SDS011;65519;53.230;10.390;2023-10-19T11:00:22;29.85;;;15.20;;
76626;SDS011;65519;53.230;10.390;2023-10-19T11:03:00;29.55;;;16.40;;
76626;SDS011;65519;53.230;10.390;2023-10-19T11:05:32;31.10;;;14.82;;
76626;SDS011;65519;53.230;10.390;2023-10-19T11:10:39;34.78;;;16.88;;
76626;SDS011;65519;53.230;10.390;2023-10-19T11:13:08;36.22;;;17.88;;
76626;SDS011;65519;53.230;10.390;2023-10-19T11:15:35;32.88;;;17.25;;
76626;SDS011;65519;53.230;10.390;2023-10-19T11:18:05;37.25;;;17.10;;
76626;SDS011;65519;53.230;10.390;2023-10-19T11:20:32;31.90;;;16.85;;
76626;SDS011;65519;53.230;10.390;2023-10-19T11:22:59;51.90;;;24.20;;
76626;SDS011;65519;53.230;10.390;2023-10-19T11:25:28;37.40;;;19.50;;
76626;SDS011;65519;53.230;10.390;2023-10-19T11:30:22;32.15;;;18.05;;
76626;SDS011;65519;53.230;10.390;2023-10-19T11:32:49;34.50;;;18.13;;
76626;SDS011;65519;53.230;10.390;2023-10-19T11:35:18;42.83;;;20.17;;
76626;SDS011;65519;53.230;10.390;2023-10-19T11:37:56;35.15;;;17.88;;
76626;SDS011;65519;53.230;10.390;2023-10-19T11:40:23;34.53;;;17.30;;
76626;SDS011;65519;53.230;10.390;2023-10-19T11:42:52;35.55;;;17.77;;
76626;SDS011;65519;53.230;10.390;2023-10-19T11:45:21;36.42;;;18.13;;
76626;SDS011;65519;53.230;10.390;2023-10-19T11:47:48;35.45;;;17.70;;
76626;SDS011;65519;53.230;10.390;2023-10-19T11:50:14;38.70;;;18.13;;
76626;SDS011;65519;53.230;10.390;2023-10-19T11:52:41;39.88;;;18.77;;
76626;SDS011;65519;53.230;10.390;2023-10-19T11:55:07;36.67;;;17.98;;
76626;SDS011;65519;53.230;10.390;2023-10-19T11:57:33;31.60;;;17.70;;
76626;SDS011;65519;53.230;10.390;2023-10-19T11:59:59;35.17;;;16.75;;
76626;SDS011;65519;53.230;10.390;2023-10-19T12:02:24;35.20;;;17.52;;
76626;SDS011;65519;53.230;10.390;2023-10-19T12:04:52;29.70;;;17.38;;
76626;SDS011;65519;53.230;10.390;2023-10-19T12:07:17;36.92;;;19.13;;
76626;SDS011;65519;53.230;10.390;2023-10-19T12:09:43;51.55;;;26.52;;
76626;SDS011;65519;53.230;10.390;2023-10-19T12:12:10;32.03;;;18.00;;
76626;SDS011;65519;53.230;10.390;2023-10-19T12:14:38;39.65;;;21.67;;
76626;SDS011;65519;53.230;10.390;2023-10-19T12:17:04;31.50;;;18.48;;
76626;SDS011;65519;53.230;10.390;2023-10-19T12:19:32;33.88;;;18.02;;
76626;SDS011;65519;53.230;10.390;2023-10-19T12:21:59;31.88;;;17.58;;
76626;SDS011;65519;53.230;10.390;2023-10-19T12:24:25;33.25;;;18.50;;
76626;SDS011;65519;53.230;10.390;2023-10-19T12:26:53;34.05;;;17.35;;
76626;SDS011;65519;53.230;10.390;2023-10-19T12:29:19;31.52;;;16.80;;
76626;SDS011;65519;53.230;10.390;2023-10-19T12:31:49;33.75;;;18.35;;
76626;SDS011;65519;53.230;10.390;2023-10-19T12:34:14;38.38;;;18.92;;
76626;SDS011;65519;53.230;10.390;2023-10-19T12:36:41;31.45;;;18.02;;
76626;SDS011;65519;53.230;10.390;2023-10-19T12:39:10;34.40;;;17.55;;
76626;SDS011;65519;53.230;10.390;2023-10-19T12:41:40;33.58;;;17.23;;
76626;SDS011;65519;53.230;10.390;2023-10-19T12:44:06;32.72;;;17.90;;
76626;SDS011;65519;53.230;10.390;2023-10-19T12:46:37;31.75;;;17.45;;
76626;SDS011;65519;53.230;10.390;2023-10-19T12:49:06;28.58;;;15.88;;
76626;SDS011;65519;53.230;10.390;2023-10-19T12:51:39;27.20;;;15.98;;
76626;SDS011;65519;53.230;10.390;2023-10-19T12:54:07;33.35;;;16.75;;
76626;SDS011;65519;53.230;10.390;2023-10-19T12:59:00;32.40;;;16.10;;
76626;SDS011;65519;53.230;10.390;2023-10-19T13:01:26;27.92;;;16.50;;
76626;SDS011;65519;53.230;10.390;2023-10-19T13:03:53;30.88;;;15.45;;
76626;SDS011;65519;53.230;10.390;2023-10-19T13:06:18;31.45;;;16.75;;
76626;SDS011;65519;53.230;10.390;2023-10-19T13:08:44;31.13;;;16.80;;
76626;SDS011;65519;53.230;10.390;2023-10-19T13:11:10;33.60;;;16.42;;
76626;SDS011;65519;53.230;10.390;2023-10-19T13:13:39;31.38;;;16.70;;
76626;SDS011;65519;53.230;10.390;2023-10-19T13:16:04;32.85;;;16.58;;
76626;SDS011;65519;53.230;10.390;2023-10-19T13:18:34;30.95;;;15.73;;
76626;SDS011;65519;53.230;10.390;2023-10-19T13:21:01;33.00;;;17.25;;
76626;SDS011;65519;53.230;10.390;2023-10-19T13:23:30;33.95;;;17.50;;
76626;SDS011;65519;53.230;10.390;2023-10-19T13:25:58;36.80;;;18.35;;
76626;SDS011;65519;53.230;10.390;2023-10-19T13:28:40;47.88;;;22.15;;
76626;SDS011;65519;53.230;10.390;2023-10-19T13:31:07;36.22;;;19.05;;
76626;SDS011;65519;53.230;10.390;2023-10-19T13:33:34;34.58;;;17.73;;
76626;SDS011;65519;53.230;10.390;2023-10-19T13:36:00;33.20;;;17.63;;
76626;SDS011;65519;53.230;10.390;2023-10-19T13:38:27;34.97;;;17.23;;
76626;SDS011;65519;53.230;10.390;2023-10-19T13:40:53;31.75;;;16.83;;
76626;SDS011;65519;53.230;10.390;2023-10-19T13:43:19;36.22;;;17.80;;
76626;SDS011;65519;53.230;10.390;2023-10-19T13:45:45;33.08;;;16.55;;
76626;SDS011;65519;53.230;10.390;2023-10-19T13:48:12;35.67;;;17.38;;
76626;SDS011;65519;53.230;10.390;2023-10-19T13:50:45;32.70;;;16.13;;
76626;SDS011;65519;53.230;10.390;2023-10-19T13:53:16;29.70;;;15.82;;
76626;SDS011;65519;53.230;10.390;2023-10-19T13:55:42;29.55;;;16.35;;
76626;SDS011;65519;53.230;10.390;2023-10-19T13:58:08;30.83;;;15.23;;
76626;SDS011;65519;53.230;10.390;2023-10-19T14:00:34;33.30;;;17.90;;
76626;SDS011;65519;53.230;10.390;2023-10-19T14:02:59;29.70;;;15.32;;
76626;SDS011;65519;53.230;10.390;2023-10-19T14:05:26;31.67;;;16.45;;
76626;SDS011;65519;53.230;10.390;2023-10-19T14:07:52;35.20;;;17.58;;
76626;SDS011;65519;53.230;10.390;2023-10-19T14:10:18;28.35;;;15.55;;
76626;SDS011;65519;53.230;10.390;2023-10-19T14:12:47;28.70;;;15.20;;
76626;SDS011;65519;53.230;10.390;2023-10-19T14:15:17;29.95;;;15.55;;
76626;SDS011;65519;53.230;10.390;2023-10-19T14:17:44;28.83;;;15.20;;
76626;SDS011;65519;53.230;10.390;2023-10-19T14:20:11;31.52;;;17.00;;
76626;SDS011;65519;53.230;10.390;2023-10-19T14:22:44;35.05;;;17.60;;
76626;SDS011;65519;53.230;10.390;2023-10-19T14:25:11;26.30;;;14.55;;
76626;SDS011;65519;53.230;10.390;2023-10-19T14:27:41;33.40;;;16.08;;
76626;SDS011;65519;53.230;10.390;2023-10-19T14:30:08;36.88;;;16.70;;
76626;SDS011;65519;53.230;10.390;2023-10-19T14:32:37;33.92;;;16.05;;
76626;SDS011;65519;53.230;10.390;2023-10-19T14:35:05;30.13;;;16.75;;
76626;SDS011;65519;53.230;10.390;2023-10-19T14:37:34;30.15;;;15.05;;
76626;SDS011;65519;53.230;10.390;2023-10-19T14:39:59;41.35;;;20.33;;